Time;durP1;ratioP1;P1;durP2;ratioP2;P2;SDS_P1;SDS_P2;PMS_P1;PMS_P2;Temp;Humidity;BMP_temperature;BMP_pressure;BME280_temperature;BME280_humidity;BME280_pressure;Samples;Min_cycle;Max_cycle;Signal;HPM_P1;HPM_P2
2023/08/29 00:13:44;;;;;;;12.00;8.40;;;;;;;19.98;99.71;99817.98;668480;1273;139469;-75
2023/08/29 00:28:49;;;;;;;8.90;7.40;;;;;;;19.86;99.97;99824.80;668814;1263;139172;-75
2023/08/29 00:43:52;;;;;;;9.30;7.50;;;;;;;19.97;100.00;99809.65;668594;1264;139588;-75
2023/08/29 00:58:56;;;;;;;9.10;7.40;;;;;;;19.75;100.00;99749.83;668562;1263;139900;-75
2023/08/29 01:14:06;;;;;;;10.60;8.20;;;;;;;19.85;100.00;99727.19;668574;1264;139224;-75
2023/08/29 01:29:10;;;;;;;14.80;9.50;;;;;;;19.85;100.00;99739.30;668394;1262;139637;-75
2023/08/29 01:44:13;;;;;;;12.40;9.10;;;;;;;19.98;100.00;99736.64;668519;1262;139630;-75
2023/08/29 01:59:17;;;;;;;15.90;12.00;;;;;;;19.88;100.00;99691.81;668786;1262;139733;-75
2023/08/29 02:14:21;;;;;;;14.90;12.00;;;;;;;19.94;100.00;99772.48;668439;1262;139681;-75
2023/08/29 02:29:24;;;;;;;14.40;11.10;;;;;;;19.99;100.00;99759.48;668857;1259;141232;-75
2023/08/29 02:44:28;;;;;;;15.70;10.50;;;;;;;20.03;100.00;99816.81;668898;1262;139613;-73
2023/08/29 02:59:31;;;;;;;11.60;9.50;;;;;;;20.04;100.00;99709.72;668566;1262;140108;-74
2023/08/29 03:14:35;;;;;;;11.20;8.20;;;;;;;19.81;100.00;99686.95;668962;1264;139536;-75
2023/08/29 03:29:40;;;;;;;10.30;6.80;;;;;;;19.55;100.00;99560.23;668713;1262;139302;-75
2023/08/29 03:44:43;;;;;;;10.40;7.20;;;;;;;19.36;100.00;99439.11;667870;1264;139417;-75
2023/08/29 03:59:47;;;;;;;7.70;6.40;;;;;;;19.41;100.00;99503.26;668153;1263;139344;-76
2023/08/29 04:14:50;;;;;;;10.40;7.70;;;;;;;19.59;100.00;99657.08;668595;1264;140206;-74
2023/08/29 04:29:53;;;;;;;8.30;5.60;;;;;;;19.53;100.00;99610.69;668037;1259;140102;-74
2023/08/29 04:44:57;;;;;;;9.20;5.60;;;;;;;19.58;100.00;99553.09;669421;1262;167608;-75
2023/08/29 05:00:00;;;;;;;7.00;5.20;;;;;;;19.51;100.00;99527.67;670403;1264;140877;-76
2023/08/29 05:15:05;;;;;;;7.90;5.90;;;;;;;19.56;100.00;99506.26;669719;1261;139290;-76
2023/08/29 05:30:09;;;;;;;7.60;5.40;;;;;;;19.53;100.00;99431.41;668836;1261;139345;-76
2023/08/29 05:45:13;;;;;;;7.80;5.60;;;;;;;19.68;100.00;99385.77;668991;1262;139577;-76
2023/08/29 06:00:18;;;;;;;6.30;5.00;;;;;;;19.94;100.00;99388.68;669100;1263;139642;-77
2023/08/29 06:15:22;;;;;;;7.50;5.10;;;;;;;20.24;100.00;99387.48;673192;1262;141181;-78
2023/08/29 06:30:26;;;;;;;5.00;4.20;;;;;;;20.49;100.00;99356.02;675134;1259;139959;-77
2023/08/29 06:45:29;;;;;;;5.90;3.80;;;;;;;20.94;100.00;99343.38;673620;1263;139403;-77
2023/08/29 07:00:34;;;;;;;5.70;3.30;;;;;;;21.55;100.00;99333.55;672399;1262;139751;-78
2023/08/29 07:15:37;;;;;;;3.40;3.00;;;;;;;22.24;100.00;99364.85;670225;1262;139056;-75
2023/08/29 07:30:45;;;;;;;3.30;3.00;;;;;;;22.81;100.00;99365.02;669711;1262;139551;-78
2023/08/29 07:45:52;;;;;;;4.20;2.80;;;;;;;23.20;100.00;99354.27;669666;1262;139663;-75
2023/08/29 08:00:56;;;;;;;2.80;2.30;;;;;;;23.39;100.00;99349.67;669106;1264;140229;-75
2023/08/29 08:16:00;;;;;;;4.50;2.60;;;;;;;24.75;100.00;99355.08;670145;1262;139060;-76
2023/08/29 08:31:06;;;;;;;3.40;2.10;;;;;;;25.62;100.00;99347.98;670364;1262;140089;-76
2023/08/29 08:46:14;;;;;;;2.50;2.30;;;;;;;25.27;99.42;99365.18;669070;1263;139732;-75
2023/08/29 09:01:18;;;;;;;4.10;2.10;;;;;;;25.08;99.30;99358.98;668846;1262;139915;-75
2023/08/29 09:16:22;;;;;;;2.70;2.10;;;;;;;25.04;98.24;99362.77;668630;1263;139212;-75
2023/08/29 09:31:26;;;;;;;5.10;2.40;;;;;;;24.75;98.82;99370.89;668763;1275;139667;-76
2023/08/29 09:46:30;;;;;;;3.80;2.40;;;;;;;24.81;97.21;99378.45;668667;1262;140913;-76
2023/08/29 10:01:33;;;;;;;2.70;2.40;;;;;;;24.69;97.70;99391.79;668652;1266;138896;-76
2023/08/29 10:16:38;;;;;;;4.60;2.50;;;;;;;24.89;97.52;99396.98;669659;1260;139353;-76
2023/08/29 10:31:43;;;;;;;5.50;2.70;;;;;;;24.86;97.97;99397.67;668655;1262;138610;-76
2023/08/29 10:46:53;;;;;;;6.60;3.50;;;;;;;24.99;97.53;99412.61;668758;1262;139369;-76
2023/08/29 11:02:23;;;;;;;7.20;4.40;;;;;;;24.89;97.76;99407.41;670338;1262;139827;-76
2023/08/29 11:17:27;;;;;;;9.00;4.00;;;;;;;25.04;98.12;99354.50;670696;1260;139742;-75
2023/08/29 11:32:30;;;;;;;8.80;4.30;;;;;;;25.35;97.20;99366.71;670809;1263;139579;-75
2023/08/29 11:47:34;;;;;;;9.80;4.80;;;;;;;25.68;95.77;99359.84;669854;1260;138992;-77
2023/08/29 12:02:39;;;;;;;18.00;6.00;;;;;;;25.30;96.36;99376.10;669200;1262;140391;-76
2023/08/29 12:17:47;;;;;;;10.30;4.30;;;;;;;25.34;97.24;99375.44;668486;1265;139069;-76
2023/08/29 12:32:51;;;;;;;10.60;5.20;;;;;;;25.82;96.33;99388.03;668388;1272;139682;-76
2023/08/29 12:47:54;;;;;;;8.00;5.10;;;;;;;25.67;95.67;99396.02;668427;1275;140794;-78
2023/08/29 13:03:00;;;;;;;19.30;8.00;;;;;;;25.85;95.56;99386.98;669400;1263;138616;-75
2023/08/29 13:18:05;;;;;;;10.70;6.50;;;;;;;25.68;95.38;99390.82;669805;1262;139342;-75
2023/08/29 13:33:09;;;;;;;10.60;5.40;;;;;;;25.59;96.31;99390.77;670433;1264;138862;-76
2023/08/29 13:48:12;;;;;;;9.20;5.10;;;;;;;25.84;96.46;99387.61;668709;1263;140862;-75
2023/08/29 14:03:16;;;;;;;10.90;6.80;;;;;;;26.09;96.61;99393.34;668417;1275;138757;-75
2023/08/29 14:18:33;;;;;;;11.80;5.70;;;;;;;25.96;96.84;99384.36;669618;1263;139842;-75
2023/08/29 14:33:37;;;;;;;10.10;5.90;;;;;;;25.48;98.55;99385.41;669390;1267;139617;-77
2023/08/29 14:48:41;;;;;;;10.00;6.00;;;;;;;25.46;99.63;99394.09;668824;1263;141890;-76
2023/08/29 15:03:45;;;;;;;13.90;7.30;;;;;;;25.61;99.70;99381.15;668454;1259;139519;-75
2023/08/29 15:18:48;;;;;;;19.90;8.20;;;;;;;25.58;100.00;99356.98;668668;1262;139718;-76
2023/08/29 15:33:52;;;;;;;14.20;7.30;;;;;;;25.58;100.00;99353.27;668885;1263;139047;-76
2023/08/29 15:48:55;;;;;;;13.40;7.00;;;;;;;25.44;100.00;99342.04;668572;1276;139346;-76
2023/08/29 16:03:59;;;;;;;11.50;7.40;;;;;;;25.11;100.00;99361.01;669812;1263;140309;-76
2023/08/29 16:19:03;;;;;;;10.50;7.10;;;;;;;24.84;100.00;99369.64;670635;1275;139461;-77
2023/08/29 16:34:07;;;;;;;11.10;8.60;;;;;;;24.60;100.00;99440.71;669437;1263;140709;-76
2023/08/29 16:49:10;;;;;;;16.10;8.20;;;;;;;24.55;100.00;99435.38;668534;1260;165677;-75
2023/08/29 17:04:14;;;;;;;26.60;17.60;;;;;;;24.52;100.00;99341.33;668745;1262;139150;-74
2023/08/29 17:19:18;;;;;;;21.50;12.30;;;;;;;24.01;100.00;99295.05;669180;1263;141546;-74
2023/08/29 17:34:22;;;;;;;34.70;21.60;;;;;;;23.82;100.00;99347.19;669338;1259;140929;-75
2023/08/29 17:49:26;;;;;;;21.20;15.00;;;;;;;23.69;100.00;99346.20;669005;1275;139580;-74
2023/08/29 18:04:29;;;;;;;23.90;15.70;;;;;;;23.59;100.00;99333.88;668758;1264;139519;-76
2023/08/29 18:19:33;;;;;;;22.60;15.50;;;;;;;23.53;100.00;99334.38;669200;1260;139546;-76
2023/08/29 18:34:37;;;;;;;22.40;13.30;;;;;;;23.23;100.00;99373.59;668816;1264;139060;-77
2023/08/29 18:49:40;;;;;;;20.80;14.80;;;;;;;23.38;100.00;99376.47;668803;1264;139498;-75
2023/08/29 19:04:44;;;;;;;34.30;18.40;;;;;;;23.33;100.00;99365.80;669109;1263;139787;-77
2023/08/29 19:19:48;;;;;;;28.60;18.90;;;;;;;23.27;100.00;99355.14;674052;1263;140039;-80
2023/08/29 19:34:52;;;;;;;28.50;17.50;;;;;;;23.33;100.00;99334.06;674158;1267;139147;-76
2023/08/29 19:49:56;;;;;;;30.40;18.20;;;;;;;23.11;100.00;99332.48;673440;1264;139122;-80
2023/08/29 20:05:02;;;;;;;48.10;24.40;;;;;;;23.07;100.00;99323.81;668999;1263;140263;-76
2023/08/29 20:20:07;;;;;;;43.10;24.90;;;;;;;23.26;100.00;99300.98;668470;1265;140504;-77
2023/08/29 20:35:12;;;;;;;46.90;26.40;;;;;;;23.23;100.00;99297.03;668780;1264;139590;-75
2023/08/29 20:50:15;;;;;;;37.40;23.50;;;;;;;23.22;100.00;99323.86;668485;1263;140242;-75
2023/08/29 21:05:19;;;;;;;28.70;20.80;;;;;;;23.13;100.00;99348.20;669184;1275;139320;-77
2023/08/29 21:20:23;;;;;;;27.80;20.20;;;;;;;22.97;100.00;99338.52;668700;1262;140332;-75
2023/08/29 21:35:27;;;;;;;26.80;19.20;;;;;;;22.93;100.00;99310.46;668758;1259;139677;-74
2023/08/29 21:50:38;;;;;;;28.80;19.40;;;;;;;22.66;100.00;99309.48;668735;1262;139458;-75
2023/08/29 22:05:41;;;;;;;30.60;20.70;;;;;;;22.39;100.00;99310.66;668636;1264;140016;-75
2023/08/29 22:20:47;;;;;;;37.00;21.80;;;;;;;22.29;100.00;99289.24;669375;1262;140358;-75
2023/08/29 22:35:51;;;;;;;39.80;27.20;;;;;;;22.33;100.00;99296.37;668717;1262;140933;-75
2023/08/29 22:50:54;;;;;;;60.80;41.00;;;;;;;22.23;100.00;99313.86;668686;1266;139511;-75
2023/08/29 23:05:57;;;;;;;32.00;21.50;;;;;;;22.13;100.00;99291.11;668677;1262;139454;-75
2023/08/29 23:21:01;;;;;;;42.30;28.90;;;;;;;21.98;100.00;99271.05;668992;1262;139415;-75
2023/08/29 23:36:05;;;;;;;37.40;22.70;;;;;;;21.75;100.00;99238.54;668865;1260;139976;-75
2023/08/29 23:51:08;;;;;;;118.30;65.40;;;;;;;21.60;100.00;99200.90;668800;1262;140006;-76
